sensor_id;sensor_type;location;lat;lon;timestamp;P1;durP1;ratioP1;P2;durP2;ratioP2
11488;SDS011;5801;50.804;12.638;2023-12-22T00:01:40;10.65;;;1.90;;
11488;SDS011;5801;50.804;12.638;2023-12-22T00:04:06;7.32;;;1.45;;
11488;SDS011;5801;50.804;12.638;2023-12-22T00:06:33;6.90;;;1.77;;
11488;SDS011;5801;50.804;12.638;2023-12-22T00:08:59;6.78;;;1.05;;
11488;SDS011;5801;50.804;12.638;2023-12-22T00:11:25;8.95;;;1.20;;
11488;SDS011;5801;50.804;12.638;2023-12-22T00:13:51;6.93;;;1.95;;
11488;SDS011;5801;50.804;12.638;2023-12-22T00:16:17;4.10;;;1.58;;
11488;SDS011;5801;50.804;12.638;2023-12-22T00:18:43;4.15;;;1.20;;
11488;SDS011;5801;50.804;12.638;2023-12-22T00:21:10;5.03;;;1.50;;
11488;SDS011;5801;50.804;12.638;2023-12-22T00:23:36;6.80;;;1.48;;
11488;SDS011;5801;50.804;12.638;2023-12-22T00:26:03;7.63;;;2.00;;
11488;SDS011;5801;50.804;12.638;2023-12-22T00:28:30;9.07;;;2.00;;
11488;SDS011;5801;50.804;12.638;2023-12-22T00:30:59;12.35;;;2.13;;
11488;SDS011;5801;50.804;12.638;2023-12-22T00:33:25;16.30;;;2.30;;
11488;SDS011;5801;50.804;12.638;2023-12-22T00:35:51;5.65;;;1.35;;
11488;SDS011;5801;50.804;12.638;2023-12-22T00:38:17;13.32;;;1.75;;
11488;SDS011;5801;50.804;12.638;2023-12-22T00:40:44;4.75;;;1.27;;
11488;SDS011;5801;50.804;12.638;2023-12-22T00:43:10;5.68;;;1.73;;
11488;SDS011;5801;50.804;12.638;2023-12-22T00:45:36;8.05;;;2.17;;
11488;SDS011;5801;50.804;12.638;2023-12-22T00:48:02;4.90;;;2.35;;
11488;SDS011;5801;50.804;12.638;2023-12-22T00:50:28;10.13;;;1.73;;
11488;SDS011;5801;50.804;12.638;2023-12-22T00:52:54;12.68;;;1.52;;
11488;SDS011;5801;50.804;12.638;2023-12-22T00:55:20;7.47;;;1.92;;
11488;SDS011;5801;50.804;12.638;2023-12-22T00:57:46;10.00;;;2.00;;
11488;SDS011;5801;50.804;12.638;2023-12-22T01:00:13;6.40;;;1.90;;
11488;SDS011;5801;50.804;12.638;2023-12-22T01:02:39;14.55;;;2.58;;
11488;SDS011;5801;50.804;12.638;2023-12-22T01:05:06;4.53;;;1.77;;
11488;SDS011;5801;50.804;12.638;2023-12-22T01:07:32;7.63;;;2.03;;
11488;SDS011;5801;50.804;12.638;2023-12-22T01:09:58;10.95;;;1.95;;
11488;SDS011;5801;50.804;12.638;2023-12-22T01:12:28;10.77;;;2.50;;
11488;SDS011;5801;50.804;12.638;2023-12-22T01:14:58;20.42;;;2.67;;
11488;SDS011;5801;50.804;12.638;2023-12-22T01:17:24;5.63;;;1.45;;
11488;SDS011;5801;50.804;12.638;2023-12-22T01:19:50;9.70;;;1.60;;
11488;SDS011;5801;50.804;12.638;2023-12-22T01:22:16;7.43;;;1.95;;
11488;SDS011;5801;50.804;12.638;2023-12-22T01:24:42;8.23;;;1.33;;
11488;SDS011;5801;50.804;12.638;2023-12-22T01:27:10;11.95;;;1.63;;
11488;SDS011;5801;50.804;12.638;2023-12-22T01:29:36;6.90;;;2.40;;
11488;SDS011;5801;50.804;12.638;2023-12-22T01:32:02;12.38;;;1.63;;
11488;SDS011;5801;50.804;12.638;2023-12-22T01:34:29;11.10;;;2.17;;
11488;SDS011;5801;50.804;12.638;2023-12-22T01:36:55;13.05;;;1.63;;
11488;SDS011;5801;50.804;12.638;2023-12-22T01:39:21;3.22;;;1.63;;
11488;SDS011;5801;50.804;12.638;2023-12-22T01:41:47;8.95;;;2.58;;
11488;SDS011;5801;50.804;12.638;2023-12-22T01:44:13;10.88;;;3.25;;
11488;SDS011;5801;50.804;12.638;2023-12-22T01:46:39;10.95;;;2.75;;
11488;SDS011;5801;50.804;12.638;2023-12-22T01:49:05;17.30;;;1.88;;
11488;SDS011;5801;50.804;12.638;2023-12-22T01:51:33;13.25;;;1.92;;
11488;SDS011;5801;50.804;12.638;2023-12-22T01:54:02;6.00;;;2.05;;
11488;SDS011;5801;50.804;12.638;2023-12-22T01:56:29;5.43;;;1.67;;
11488;SDS011;5801;50.804;12.638;2023-12-22T01:58:55;8.35;;;2.25;;
11488;SDS011;5801;50.804;12.638;2023-12-22T02:01:24;7.90;;;2.78;;
11488;SDS011;5801;50.804;12.638;2023-12-22T02:03:52;4.45;;;1.35;;
11488;SDS011;5801;50.804;12.638;2023-12-22T02:06:19;8.80;;;1.85;;
11488;SDS011;5801;50.804;12.638;2023-12-22T02:08:49;20.40;;;2.40;;
11488;SDS011;5801;50.804;12.638;2023-12-22T02:11:15;17.48;;;2.22;;
11488;SDS011;5801;50.804;12.638;2023-12-22T02:13:42;20.88;;;2.00;;
11488;SDS011;5801;50.804;12.638;2023-12-22T02:16:11;13.10;;;1.42;;
11488;SDS011;5801;50.804;12.638;2023-12-22T02:18:58;6.63;;;1.80;;
11488;SDS011;5801;50.804;12.638;2023-12-22T02:21:26;13.32;;;2.55;;
11488;SDS011;5801;50.804;12.638;2023-12-22T02:23:52;16.48;;;2.30;;
11488;SDS011;5801;50.804;12.638;2023-12-22T02:26:22;14.38;;;2.70;;
11488;SDS011;5801;50.804;12.638;2023-12-22T02:29:03;4.30;;;1.83;;
11488;SDS011;5801;50.804;12.638;2023-12-22T02:31:37;10.93;;;2.47;;
11488;SDS011;5801;50.804;12.638;2023-12-22T02:34:10;4.43;;;1.90;;
11488;SDS011;5801;50.804;12.638;2023-12-22T02:36:38;7.32;;;1.90;;
11488;SDS011;5801;50.804;12.638;2023-12-22T02:39:05;4.30;;;1.70;;
11488;SDS011;5801;50.804;12.638;2023-12-22T02:41:32;3.33;;;1.45;;
11488;SDS011;5801;50.804;12.638;2023-12-22T02:43:58;14.30;;;2.00;;
11488;SDS011;5801;50.804;12.638;2023-12-22T02:46:24;11.60;;;1.55;;
11488;SDS011;5801;50.804;12.638;2023-12-22T02:48:51;20.30;;;2.65;;
11488;SDS011;5801;50.804;12.638;2023-12-22T02:51:17;9.35;;;1.60;;
11488;SDS011;5801;50.804;12.638;2023-12-22T02:53:43;18.42;;;2.60;;
11488;SDS011;5801;50.804;12.638;2023-12-22T02:56:09;6.72;;;1.50;;
11488;SDS011;5801;50.804;12.638;2023-12-22T02:58:35;6.75;;;2.33;;
11488;SDS011;5801;50.804;12.638;2023-12-22T03:01:01;8.77;;;2.22;;
11488;SDS011;5801;50.804;12.638;2023-12-22T03:03:27;14.07;;;1.42;;
11488;SDS011;5801;50.804;12.638;2023-12-22T03:05:53;23.58;;;2.38;;
11488;SDS011;5801;50.804;12.638;2023-12-22T03:08:19;3.83;;;1.70;;
11488;SDS011;5801;50.804;12.638;2023-12-22T03:10:45;6.05;;;1.73;;
11488;SDS011;5801;50.804;12.638;2023-12-22T03:13:11;7.82;;;1.63;;
11488;SDS011;5801;50.804;12.638;2023-12-22T03:15:37;8.10;;;2.05;;
11488;SDS011;5801;50.804;12.638;2023-12-22T03:18:03;10.43;;;1.85;;
11488;SDS011;5801;50.804;12.638;2023-12-22T03:20:29;10.75;;;2.20;;
11488;SDS011;5801;50.804;12.638;2023-12-22T03:22:55;14.45;;;1.65;;
11488;SDS011;5801;50.804;12.638;2023-12-22T03:25:21;12.43;;;1.92;;
11488;SDS011;5801;50.804;12.638;2023-12-22T03:27:49;7.50;;;1.73;;
11488;SDS011;5801;50.804;12.638;2023-12-22T03:30:15;5.50;;;1.45;;
11488;SDS011;5801;50.804;12.638;2023-12-22T03:32:41;9.13;;;2.42;;
11488;SDS011;5801;50.804;12.638;2023-12-22T03:35:07;10.80;;;1.60;;
11488;SDS011;5801;50.804;12.638;2023-12-22T03:37:33;11.35;;;1.98;;
11488;SDS011;5801;50.804;12.638;2023-12-22T03:40:00;10.82;;;1.40;;
11488;SDS011;5801;50.804;12.638;2023-12-22T03:42:26;6.85;;;0.90;;
11488;SDS011;5801;50.804;12.638;2023-12-22T03:44:52;4.90;;;2.13;;
11488;SDS011;5801;50.804;12.638;2023-12-22T03:47:18;9.77;;;1.63;;
11488;SDS011;5801;50.804;12.638;2023-12-22T03:49:44;2.22;;;1.08;;
11488;SDS011;5801;50.804;12.638;2023-12-22T03:52:10;4.05;;;1.40;;
11488;SDS011;5801;50.804;12.638;2023-12-22T03:54:36;1.67;;;1.33;;
11488;SDS011;5801;50.804;12.638;2023-12-22T03:57:02;13.13;;;1.50;;
11488;SDS011;5801;50.804;12.638;2023-12-22T03:59:28;5.97;;;1.48;;
11488;SDS011;5801;50.804;12.638;2023-12-22T04:01:54;2.03;;;1.08;;
11488;SDS011;5801;50.804;12.638;2023-12-22T04:04:22;7.90;;;2.10;;
11488;SDS011;5801;50.804;12.638;2023-12-22T04:06:48;3.22;;;1.90;;
11488;SDS011;5801;50.804;12.638;2023-12-22T04:09:14;2.47;;;1.45;;
11488;SDS011;5801;50.804;12.638;2023-12-22T04:11:40;3.92;;;1.75;;
11488;SDS011;5801;50.804;12.638;2023-12-22T04:14:07;7.68;;;1.08;;
11488;SDS011;5801;50.804;12.638;2023-12-22T04:16:33;2.00;;;0.98;;
11488;SDS011;5801;50.804;12.638;2023-12-22T04:19:03;8.77;;;1.77;;
11488;SDS011;5801;50.804;12.638;2023-12-22T04:21:29;11.50;;;1.45;;
11488;SDS011;5801;50.804;12.638;2023-12-22T04:23:55;4.28;;;1.20;;
11488;SDS011;5801;50.804;12.638;2023-12-22T04:26:21;8.65;;;1.35;;
11488;SDS011;5801;50.804;12.638;2023-12-22T04:28:47;17.42;;;1.77;;
11488;SDS011;5801;50.804;12.638;2023-12-22T04:31:13;9.15;;;1.10;;
11488;SDS011;5801;50.804;12.638;2023-12-22T04:33:39;2.42;;;1.25;;
11488;SDS011;5801;50.804;12.638;2023-12-22T04:36:05;1.48;;;0.85;;
11488;SDS011;5801;50.804;12.638;2023-12-22T04:38:31;3.72;;;1.15;;
11488;SDS011;5801;50.804;12.638;2023-12-22T04:40:57;3.47;;;1.50;;
11488;SDS011;5801;50.804;12.638;2023-12-22T04:43:23;1.75;;;0.75;;
11488;SDS011;5801;50.804;12.638;2023-12-22T04:45:49;1.10;;;0.80;;
11488;SDS011;5801;50.804;12.638;2023-12-22T04:48:16;5.00;;;1.27;;
11488;SDS011;5801;50.804;12.638;2023-12-22T04:50:42;6.50;;;1.35;;
11488;SDS011;5801;50.804;12.638;2023-12-22T04:53:08;2.05;;;0.90;;
11488;SDS011;5801;50.804;12.638;2023-12-22T04:55:34;3.85;;;1.65;;
11488;SDS011;5801;50.804;12.638;2023-12-22T04:58:00;1.60;;;0.90;;
11488;SDS011;5801;50.804;12.638;2023-12-22T05:00:26;10.85;;;1.55;;
11488;SDS011;5801;50.804;12.638;2023-12-22T05:02:52;4.57;;;1.40;;
11488;SDS011;5801;50.804;12.638;2023-12-22T05:05:18;6.15;;;1.45;;
11488;SDS011;5801;50.804;12.638;2023-12-22T05:07:44;1.60;;;1.02;;
11488;SDS011;5801;50.804;12.638;2023-12-22T05:10:10;7.78;;;2.08;;
11488;SDS011;5801;50.804;12.638;2023-12-22T05:12:36;3.47;;;1.55;;
11488;SDS011;5801;50.804;12.638;2023-12-22T05:15:02;4.63;;;1.88;;
11488;SDS011;5801;50.804;12.638;2023-12-22T05:17:29;5.18;;;1.20;;
11488;SDS011;5801;50.804;12.638;2023-12-22T05:19:55;2.47;;;0.93;;
11488;SDS011;5801;50.804;12.638;2023-12-22T05:22:21;8.20;;;0.90;;
11488;SDS011;5801;50.804;12.638;2023-12-22T05:24:47;6.80;;;0.93;;
11488;SDS011;5801;50.804;12.638;2023-12-22T05:27:13;8.48;;;1.58;;
11488;SDS011;5801;50.804;12.638;2023-12-22T05:29:39;2.30;;;0.80;;
11488;SDS011;5801;50.804;12.638;2023-12-22T05:32:05;1.42;;;0.80;;
11488;SDS011;5801;50.804;12.638;2023-12-22T05:34:32;0.80;;;0.80;;
11488;SDS011;5801;50.804;12.638;2023-12-22T05:36:58;0.63;;;0.63;;
11488;SDS011;5801;50.804;12.638;2023-12-22T05:39:24;2.10;;;0.57;;
11488;SDS011;5801;50.804;12.638;2023-12-22T05:41:50;0.50;;;0.50;;
11488;SDS011;5801;50.804;12.638;2023-12-22T05:44:16;0.77;;;0.77;;
11488;SDS011;5801;50.804;12.638;2023-12-22T05:46:42;3.17;;;0.85;;
11488;SDS011;5801;50.804;12.638;2023-12-22T05:49:09;2.42;;;0.50;;
11488;SDS011;5801;50.804;12.638;2023-12-22T05:51:38;1.30;;;0.80;;
11488;SDS011;5801;50.804;12.638;2023-12-22T05:54:05;0.70;;;0.60;;
11488;SDS011;5801;50.804;12.638;2023-12-22T05:56:32;2.72;;;1.08;;
11488;SDS011;5801;50.804;12.638;2023-12-22T05:58:58;3.85;;;0.95;;
11488;SDS011;5801;50.804;12.638;2023-12-22T06:01:24;5.07;;;0.80;;
11488;SDS011;5801;50.804;12.638;2023-12-22T06:03:52;0.75;;;0.55;;
11488;SDS011;5801;50.804;12.638;2023-12-22T06:06:18;5.97;;;1.00;;
11488;SDS011;5801;50.804;12.638;2023-12-22T06:08:44;1.05;;;0.60;;
11488;SDS011;5801;50.804;12.638;2023-12-22T06:11:11;5.57;;;1.13;;
11488;SDS011;5801;50.804;12.638;2023-12-22T06:13:37;0.50;;;0.50;;
11488;SDS011;5801;50.804;12.638;2023-12-22T06:16:03;1.58;;;0.93;;
11488;SDS011;5801;50.804;12.638;2023-12-22T06:18:30;2.30;;;1.15;;
11488;SDS011;5801;50.804;12.638;2023-12-22T06:20:56;5.65;;;2.13;;
11488;SDS011;5801;50.804;12.638;2023-12-22T06:23:22;2.17;;;1.00;;
11488;SDS011;5801;50.804;12.638;2023-12-22T06:25:48;5.20;;;1.20;;
11488;SDS011;5801;50.804;12.638;2023-12-22T06:28:14;4.95;;;1.23;;
11488;SDS011;5801;50.804;12.638;2023-12-22T06:30:41;2.97;;;0.90;;
11488;SDS011;5801;50.804;12.638;2023-12-22T06:33:09;5.78;;;1.15;;
11488;SDS011;5801;50.804;12.638;2023-12-22T06:35:36;3.78;;;1.00;;
11488;SDS011;5801;50.804;12.638;2023-12-22T06:38:02;2.28;;;1.02;;
11488;SDS011;5801;50.804;12.638;2023-12-22T06:40:30;1.17;;;0.75;;
11488;SDS011;5801;50.804;12.638;2023-12-22T06:42:56;7.25;;;1.27;;
11488;SDS011;5801;50.804;12.638;2023-12-22T06:45:22;1.90;;;0.90;;
11488;SDS011;5801;50.804;12.638;2023-12-22T06:47:48;4.53;;;1.02;;
11488;SDS011;5801;50.804;12.638;2023-12-22T06:50:14;3.10;;;0.88;;
11488;SDS011;5801;50.804;12.638;2023-12-22T06:52:41;3.25;;;0.95;;
11488;SDS011;5801;50.804;12.638;2023-12-22T06:55:07;4.15;;;1.45;;
11488;SDS011;5801;50.804;12.638;2023-12-22T06:57:33;6.45;;;1.65;;
11488;SDS011;5801;50.804;12.638;2023-12-22T06:59:59;8.05;;;1.15;;
11488;SDS011;5801;50.804;12.638;2023-12-22T07:02:25;0.80;;;0.75;;
11488;SDS011;5801;50.804;12.638;2023-12-22T07:07:33;4.88;;;1.25;;
11488;SDS011;5801;50.804;12.638;2023-12-22T07:09:59;4.32;;;1.58;;
11488;SDS011;5801;50.804;12.638;2023-12-22T07:12:25;7.82;;;1.85;;
11488;SDS011;5801;50.804;12.638;2023-12-22T07:14:51;1.77;;;1.08;;
11488;SDS011;5801;50.804;12.638;2023-12-22T07:17:17;10.23;;;1.23;;
11488;SDS011;5801;50.804;12.638;2023-12-22T07:19:43;5.97;;;1.48;;
11488;SDS011;5801;50.804;12.638;2023-12-22T07:22:08;2.35;;;0.98;;
11488;SDS011;5801;50.804;12.638;2023-12-22T07:24:34;2.35;;;1.02;;
11488;SDS011;5801;50.804;12.638;2023-12-22T07:27:00;6.35;;;1.33;;
11488;SDS011;5801;50.804;12.638;2023-12-22T07:29:27;3.42;;;0.90;;
11488;SDS011;5801;50.804;12.638;2023-12-22T07:31:53;3.33;;;1.05;;
11488;SDS011;5801;50.804;12.638;2023-12-22T07:34:19;2.70;;;1.15;;
11488;SDS011;5801;50.804;12.638;2023-12-22T07:36:47;4.15;;;0.95;;
11488;SDS011;5801;50.804;12.638;2023-12-22T07:39:13;0.82;;;0.82;;
11488;SDS011;5801;50.804;12.638;2023-12-22T07:41:40;3.78;;;0.93;;
11488;SDS011;5801;50.804;12.638;2023-12-22T07:44:06;3.45;;;0.82;;
11488;SDS011;5801;50.804;12.638;2023-12-22T07:46:32;4.82;;;1.13;;
11488;SDS011;5801;50.804;12.638;2023-12-22T07:48:58;0.63;;;0.63;;
11488;SDS011;5801;50.804;12.638;2023-12-22T07:51:24;7.35;;;1.05;;
11488;SDS011;5801;50.804;12.638;2023-12-22T07:53:50;6.60;;;0.60;;
11488;SDS011;5801;50.804;12.638;2023-12-22T07:56:17;5.65;;;0.70;;
11488;SDS011;5801;50.804;12.638;2023-12-22T07:58:43;0.75;;;0.75;;
11488;SDS011;5801;50.804;12.638;2023-12-22T08:01:09;0.50;;;0.50;;
11488;SDS011;5801;50.804;12.638;2023-12-22T08:03:35;1.13;;;1.05;;
11488;SDS011;5801;50.804;12.638;2023-12-22T08:06:02;2.63;;;0.80;;
11488;SDS011;5801;50.804;12.638;2023-12-22T08:08:28;0.93;;;0.65;;
11488;SDS011;5801;50.804;12.638;2023-12-22T08:10:54;3.65;;;1.20;;
11488;SDS011;5801;50.804;12.638;2023-12-22T08:13:20;4.95;;;1.10;;
11488;SDS011;5801;50.804;12.638;2023-12-22T08:15:46;1.02;;;1.00;;
11488;SDS011;5801;50.804;12.638;2023-12-22T08:18:13;8.27;;;1.17;;
11488;SDS011;5801;50.804;12.638;2023-12-22T08:20:39;1.08;;;0.98;;
11488;SDS011;5801;50.804;12.638;2023-12-22T08:23:05;1.75;;;1.10;;
11488;SDS011;5801;50.804;12.638;2023-12-22T08:25:31;1.08;;;0.90;;
11488;SDS011;5801;50.804;12.638;2023-12-22T08:27:57;2.35;;;0.90;;
11488;SDS011;5801;50.804;12.638;2023-12-22T08:30:23;6.88;;;1.40;;
11488;SDS011;5801;50.804;12.638;2023-12-22T08:32:49;1.02;;;0.85;;
11488;SDS011;5801;50.804;12.638;2023-12-22T08:35:15;1.20;;;0.70;;
11488;SDS011;5801;50.804;12.638;2023-12-22T08:37:42;0.77;;;0.73;;
11488;SDS011;5801;50.804;12.638;2023-12-22T08:40:08;3.33;;;0.98;;
11488;SDS011;5801;50.804;12.638;2023-12-22T08:42:34;3.65;;;1.00;;
11488;SDS011;5801;50.804;12.638;2023-12-22T08:45:00;1.45;;;1.10;;
11488;SDS011;5801;50.804;12.638;2023-12-22T08:47:27;2.90;;;0.70;;
11488;SDS011;5801;50.804;12.638;2023-12-22T08:49:53;0.32;;;0.32;;
11488;SDS011;5801;50.804;12.638;2023-12-22T08:52:19;0.65;;;0.63;;
11488;SDS011;5801;50.804;12.638;2023-12-22T08:54:45;0.45;;;0.45;;
11488;SDS011;5801;50.804;12.638;2023-12-22T08:57:11;1.35;;;0.30;;
11488;SDS011;5801;50.804;12.638;2023-12-22T08:59:37;1.35;;;0.43;;
11488;SDS011;5801;50.804;12.638;2023-12-22T09:02:03;0.30;;;0.30;;
11488;SDS011;5801;50.804;12.638;2023-12-22T09:04:30;0.30;;;0.30;;
11488;SDS011;5801;50.804;12.638;2023-12-22T09:06:56;0.30;;;0.30;;
11488;SDS011;5801;50.804;12.638;2023-12-22T09:09:22;0.30;;;0.30;;
11488;SDS011;5801;50.804;12.638;2023-12-22T09:11:49;0.40;;;0.40;;
11488;SDS011;5801;50.804;12.638;2023-12-22T09:14:15;0.40;;;0.40;;
11488;SDS011;5801;50.804;12.638;2023-12-22T09:16:41;0.40;;;0.40;;
11488;SDS011;5801;50.804;12.638;2023-12-22T09:19:09;0.30;;;0.30;;
11488;SDS011;5801;50.804;12.638;2023-12-22T09:21:35;0.30;;;0.30;;
11488;SDS011;5801;50.804;12.638;2023-12-22T09:24:01;0.85;;;0.45;;
11488;SDS011;5801;50.804;12.638;2023-12-22T09:26:26;0.30;;;0.30;;
11488;SDS011;5801;50.804;12.638;2023-12-22T09:28:53;0.52;;;0.40;;
11488;SDS011;5801;50.804;12.638;2023-12-22T09:31:19;0.50;;;0.50;;
11488;SDS011;5801;50.804;12.638;2023-12-22T09:33:47;0.50;;;0.50;;
11488;SDS011;5801;50.804;12.638;2023-12-22T09:36:13;0.30;;;0.30;;
11488;SDS011;5801;50.804;12.638;2023-12-22T09:38:39;0.38;;;0.38;;
11488;SDS011;5801;50.804;12.638;2023-12-22T09:41:06;1.23;;;0.70;;
11488;SDS011;5801;50.804;12.638;2023-12-22T09:43:33;0.60;;;0.60;;
11488;SDS011;5801;50.804;12.638;2023-12-22T09:46:03;0.50;;;0.50;;
11488;SDS011;5801;50.804;12.638;2023-12-22T09:48:30;0.40;;;0.40;;
11488;SDS011;5801;50.804;12.638;2023-12-22T09:50:56;0.63;;;0.63;;
11488;SDS011;5801;50.804;12.638;2023-12-22T09:53:22;0.40;;;0.40;;
11488;SDS011;5801;50.804;12.638;2023-12-22T09:55:50;2.28;;;0.80;;
11488;SDS011;5801;50.804;12.638;2023-12-22T09:58:16;0.75;;;0.52;;
11488;SDS011;5801;50.804;12.638;2023-12-22T10:00:42;0.73;;;0.70;;
11488;SDS011;5801;50.804;12.638;2023-12-22T10:03:09;1.13;;;0.75;;
11488;SDS011;5801;50.804;12.638;2023-12-22T10:05:37;0.60;;;0.60;;
11488;SDS011;5801;50.804;12.638;2023-12-22T10:08:04;0.40;;;0.40;;
11488;SDS011;5801;50.804;12.638;2023-12-22T10:10:32;4.43;;;1.13;;
11488;SDS011;5801;50.804;12.638;2023-12-22T10:12:58;2.38;;;1.15;;
11488;SDS011;5801;50.804;12.638;2023-12-22T10:15:28;1.05;;;0.95;;
11488;SDS011;5801;50.804;12.638;2023-12-22T10:17:55;5.68;;;1.25;;
11488;SDS011;5801;50.804;12.638;2023-12-22T10:20:21;2.90;;;1.60;;
11488;SDS011;5801;50.804;12.638;2023-12-22T10:22:47;2.15;;;0.90;;
11488;SDS011;5801;50.804;12.638;2023-12-22T10:25:19;4.75;;;1.50;;
11488;SDS011;5801;50.804;12.638;2023-12-22T10:27:46;7.22;;;1.98;;
11488;SDS011;5801;50.804;12.638;2023-12-22T10:30:12;4.35;;;1.50;;
11488;SDS011;5801;50.804;12.638;2023-12-22T10:32:40;9.38;;;1.48;;
11488;SDS011;5801;50.804;12.638;2023-12-22T10:35:09;2.17;;;1.00;;
11488;SDS011;5801;50.804;12.638;2023-12-22T10:37:35;10.23;;;1.75;;
11488;SDS011;5801;50.804;12.638;2023-12-22T10:40:03;3.70;;;1.05;;
11488;SDS011;5801;50.804;12.638;2023-12-22T10:42:30;6.93;;;1.17;;
11488;SDS011;5801;50.804;12.638;2023-12-22T10:44:57;7.03;;;1.23;;
11488;SDS011;5801;50.804;12.638;2023-12-22T10:47:23;3.53;;;1.50;;
11488;SDS011;5801;50.804;12.638;2023-12-22T10:49:48;4.15;;;1.38;;
11488;SDS011;5801;50.804;12.638;2023-12-22T10:52:18;2.33;;;1.30;;
11488;SDS011;5801;50.804;12.638;2023-12-22T10:54:45;2.35;;;1.10;;
11488;SDS011;5801;50.804;12.638;2023-12-22T10:57:13;2.40;;;1.13;;
11488;SDS011;5801;50.804;12.638;2023-12-22T10:59:45;6.93;;;1.20;;
11488;SDS011;5801;50.804;12.638;2023-12-22T11:02:15;11.38;;;1.63;;
11488;SDS011;5801;50.804;12.638;2023-12-22T11:04:47;8.63;;;1.52;;
11488;SDS011;5801;50.804;12.638;2023-12-22T11:07:19;7.05;;;2.03;;
11488;SDS011;5801;50.804;12.638;2023-12-22T11:09:45;7.07;;;1.25;;
11488;SDS011;5801;50.804;12.638;2023-12-22T11:12:15;3.92;;;1.40;;
11488;SDS011;5801;50.804;12.638;2023-12-22T11:14:41;2.95;;;1.33;;
11488;SDS011;5801;50.804;12.638;2023-12-22T11:17:08;2.30;;;1.10;;
11488;SDS011;5801;50.804;12.638;2023-12-22T11:19:35;3.70;;;0.77;;
11488;SDS011;5801;50.804;12.638;2023-12-22T11:22:03;2.30;;;1.10;;
11488;SDS011;5801;50.804;12.638;2023-12-22T11:24:30;7.93;;;1.52;;
11488;SDS011;5801;50.804;12.638;2023-12-22T11:26:57;3.17;;;0.82;;
11488;SDS011;5801;50.804;12.638;2023-12-22T11:29:24;2.45;;;1.23;;
11488;SDS011;5801;50.804;12.638;2023-12-22T11:31:51;9.20;;;2.05;;
11488;SDS011;5801;50.804;12.638;2023-12-22T11:34:21;5.13;;;1.38;;
11488;SDS011;5801;50.804;12.638;2023-12-22T11:36:48;5.47;;;1.30;;
11488;SDS011;5801;50.804;12.638;2023-12-22T11:39:14;12.02;;;1.95;;
11488;SDS011;5801;50.804;12.638;2023-12-22T11:41:41;1.13;;;0.80;;
11488;SDS011;5801;50.804;12.638;2023-12-22T11:44:07;6.55;;;1.38;;
11488;SDS011;5801;50.804;12.638;2023-12-22T11:46:33;6.50;;;2.10;;
11488;SDS011;5801;50.804;12.638;2023-12-22T11:48:59;5.82;;;1.05;;
11488;SDS011;5801;50.804;12.638;2023-12-22T11:51:25;7.78;;;1.00;;
11488;SDS011;5801;50.804;12.638;2023-12-22T11:53:59;9.32;;;1.75;;
11488;SDS011;5801;50.804;12.638;2023-12-22T11:56:25;6.35;;;1.38;;
11488;SDS011;5801;50.804;12.638;2023-12-22T11:58:52;4.68;;;0.98;;
11488;SDS011;5801;50.804;12.638;2023-12-22T12:01:20;11.20;;;1.30;;
11488;SDS011;5801;50.804;12.638;2023-12-22T12:03:50;3.55;;;1.23;;
11488;SDS011;5801;50.804;12.638;2023-12-22T12:08:54;8.13;;;1.38;;
11488;SDS011;5801;50.804;12.638;2023-12-22T12:11:25;10.02;;;1.30;;
11488;SDS011;5801;50.804;12.638;2023-12-22T12:14:16;4.00;;;1.02;;
11488;SDS011;5801;50.804;12.638;2023-12-22T12:16:48;7.80;;;1.02;;
11488;SDS011;5801;50.804;12.638;2023-12-22T12:19:14;4.43;;;1.40;;
11488;SDS011;5801;50.804;12.638;2023-12-22T12:21:40;2.67;;;1.00;;
11488;SDS011;5801;50.804;12.638;2023-12-22T12:24:07;4.20;;;1.15;;
11488;SDS011;5801;50.804;12.638;2023-12-22T12:26:34;1.73;;;0.90;;
11488;SDS011;5801;50.804;12.638;2023-12-22T12:29:00;3.42;;;1.48;;
11488;SDS011;5801;50.804;12.638;2023-12-22T12:31:36;4.00;;;1.10;;
11488;SDS011;5801;50.804;12.638;2023-12-22T12:34:06;4.60;;;1.30;;
11488;SDS011;5801;50.804;12.638;2023-12-22T12:36:34;6.80;;;1.38;;
11488;SDS011;5801;50.804;12.638;2023-12-22T12:39:01;4.05;;;1.08;;
11488;SDS011;5801;50.804;12.638;2023-12-22T12:41:36;6.65;;;1.25;;
11488;SDS011;5801;50.804;12.638;2023-12-22T12:44:06;4.75;;;1.35;;
11488;SDS011;5801;50.804;12.638;2023-12-22T12:46:36;3.15;;;1.05;;
11488;SDS011;5801;50.804;12.638;2023-12-22T12:49:04;4.55;;;1.10;;
11488;SDS011;5801;50.804;12.638;2023-12-22T12:51:36;2.80;;;1.20;;
11488;SDS011;5801;50.804;12.638;2023-12-22T12:54:03;2.15;;;0.90;;
11488;SDS011;5801;50.804;12.638;2023-12-22T12:56:38;4.05;;;0.65;;
11488;SDS011;5801;50.804;12.638;2023-12-22T12:59:11;0.60;;;0.60;;
11488;SDS011;5801;50.804;12.638;2023-12-22T13:01:38;7.68;;;1.77;;
11488;SDS011;5801;50.804;12.638;2023-12-22T13:04:05;6.22;;;0.90;;
11488;SDS011;5801;50.804;12.638;2023-12-22T13:06:31;5.07;;;1.00;;
11488;SDS011;5801;50.804;12.638;2023-12-22T13:08:58;3.75;;;0.98;;
11488;SDS011;5801;50.804;12.638;2023-12-22T13:11:27;0.98;;;0.52;;
11488;SDS011;5801;50.804;12.638;2023-12-22T13:13:56;3.00;;;0.68;;
11488;SDS011;5801;50.804;12.638;2023-12-22T13:16:22;0.50;;;0.50;;
11488;SDS011;5801;50.804;12.638;2023-12-22T13:18:54;2.40;;;0.77;;
11488;SDS011;5801;50.804;12.638;2023-12-22T13:21:22;1.80;;;0.82;;
11488;SDS011;5801;50.804;12.638;2023-12-22T13:24:07;0.55;;;0.55;;
11488;SDS011;5801;50.804;12.638;2023-12-22T13:26:34;0.77;;;0.57;;
11488;SDS011;5801;50.804;12.638;2023-12-22T13:29:00;0.88;;;0.60;;
11488;SDS011;5801;50.804;12.638;2023-12-22T13:31:26;1.02;;;0.77;;
11488;SDS011;5801;50.804;12.638;2023-12-22T13:33:52;0.47;;;0.47;;
11488;SDS011;5801;50.804;12.638;2023-12-22T13:36:19;1.90;;;0.52;;
11488;SDS011;5801;50.804;12.638;2023-12-22T13:38:48;0.63;;;0.63;;
11488;SDS011;5801;50.804;12.638;2023-12-22T13:41:15;1.35;;;0.55;;
11488;SDS011;5801;50.804;12.638;2023-12-22T13:43:41;0.73;;;0.52;;
11488;SDS011;5801;50.804;12.638;2023-12-22T13:46:09;1.50;;;0.95;;
11488;SDS011;5801;50.804;12.638;2023-12-22T13:48:39;1.23;;;1.13;;
11488;SDS011;5801;50.804;12.638;2023-12-22T13:51:05;3.92;;;0.70;;
11488;SDS011;5801;50.804;12.638;2023-12-22T13:53:31;2.17;;;0.68;;
11488;SDS011;5801;50.804;12.638;2023-12-22T13:55:58;1.02;;;0.68;;
11488;SDS011;5801;50.804;12.638;2023-12-22T13:58:25;0.60;;;0.60;;
11488;SDS011;5801;50.804;12.638;2023-12-22T14:00:51;0.70;;;0.70;;
11488;SDS011;5801;50.804;12.638;2023-12-22T14:03:17;0.82;;;0.82;;
11488;SDS011;5801;50.804;12.638;2023-12-22T14:05:46;0.65;;;0.50;;
11488;SDS011;5801;50.804;12.638;2023-12-22T14:08:17;2.13;;;1.02;;
11488;SDS011;5801;50.804;12.638;2023-12-22T14:10:46;1.08;;;0.77;;
11488;SDS011;5801;50.804;12.638;2023-12-22T14:13:13;0.57;;;0.57;;
11488;SDS011;5801;50.804;12.638;2023-12-22T14:15:39;6.80;;;0.93;;
11488;SDS011;5801;50.804;12.638;2023-12-22T14:18:09;0.50;;;0.50;;
11488;SDS011;5801;50.804;12.638;2023-12-22T14:20:35;3.60;;;0.70;;
11488;SDS011;5801;50.804;12.638;2023-12-22T14:23:01;2.30;;;0.77;;
11488;SDS011;5801;50.804;12.638;2023-12-22T14:25:27;4.57;;;0.90;;
11488;SDS011;5801;50.804;12.638;2023-12-22T14:27:53;0.63;;;0.60;;
11488;SDS011;5801;50.804;12.638;2023-12-22T14:30:22;1.02;;;0.68;;
11488;SDS011;5801;50.804;12.638;2023-12-22T14:32:48;0.52;;;0.52;;
11488;SDS011;5801;50.804;12.638;2023-12-22T14:35:14;0.65;;;0.65;;
11488;SDS011;5801;50.804;12.638;2023-12-22T14:37:40;0.75;;;0.70;;
11488;SDS011;5801;50.804;12.638;2023-12-22T14:40:08;3.95;;;1.35;;
11488;SDS011;5801;50.804;12.638;2023-12-22T14:42:34;1.13;;;0.77;;
11488;SDS011;5801;50.804;12.638;2023-12-22T14:45:00;2.63;;;0.95;;
11488;SDS011;5801;50.804;12.638;2023-12-22T14:47:27;1.58;;;1.05;;
11488;SDS011;5801;50.804;12.638;2023-12-22T14:49:53;3.80;;;0.75;;